sensor_id;sensor_type;location;lat;lon;timestamp;temperature;humidity
21033;DHT22;10675;47.976;7.824;2023-10-19T00:01:57;17.20;99.90
21033;DHT22;10675;47.976;7.824;2023-10-19T00:04:24;17.30;99.90
21033;DHT22;10675;47.976;7.824;2023-10-19T00:06:50;16.20;99.90
21033;DHT22;10675;47.976;7.824;2023-10-19T00:09:15;14.60;99.90
21033;DHT22;10675;47.976;7.824;2023-10-19T00:11:41;13.70;99.90
21033;DHT22;10675;47.976;7.824;2023-10-19T00:14:07;13.30;99.90
21033;DHT22;10675;47.976;7.824;2023-10-19T00:16:42;13.10;99.90
21033;DHT22;10675;47.976;7.824;2023-10-19T00:19:10;12.90;99.90
21033;DHT22;10675;47.976;7.824;2023-10-19T00:21:36;12.90;99.90
21033;DHT22;10675;47.976;7.824;2023-10-19T00:24:17;12.80;99.90
21033;DHT22;10675;47.976;7.824;2023-10-19T00:26:43;12.60;99.90
21033;DHT22;10675;47.976;7.824;2023-10-19T00:29:09;12.60;99.90
21033;DHT22;10675;47.976;7.824;2023-10-19T00:31:53;12.50;99.90
21033;DHT22;10675;47.976;7.824;2023-10-19T00:34:21;12.60;99.90
21033;DHT22;10675;47.976;7.824;2023-10-19T00:36:47;12.50;99.90
21033;DHT22;10675;47.976;7.824;2023-10-19T00:39:13;12.50;99.90
21033;DHT22;10675;47.976;7.824;2023-10-19T00:41:49;12.50;99.90
21033;DHT22;10675;47.976;7.824;2023-10-19T00:44:16;12.40;99.90
21033;DHT22;10675;47.976;7.824;2023-10-19T00:46:50;12.50;99.90
21033;DHT22;10675;47.976;7.824;2023-10-19T00:49:26;12.50;99.90
21033;DHT22;10675;47.976;7.824;2023-10-19T00:51:53;12.40;99.90
21033;DHT22;10675;47.976;7.824;2023-10-19T00:54:27;12.50;99.90
21033;DHT22;10675;47.976;7.824;2023-10-19T00:56:59;12.50;99.90
21033;DHT22;10675;47.976;7.824;2023-10-19T00:59:31;12.50;99.90
21033;DHT22;10675;47.976;7.824;2023-10-19T01:02:01;12.40;99.90
21033;DHT22;10675;47.976;7.824;2023-10-19T01:04:43;12.30;99.90
21033;DHT22;10675;47.976;7.824;2023-10-19T01:07:10;12.20;99.90
21033;DHT22;10675;47.976;7.824;2023-10-19T01:09:47;12.20;99.90
21033;DHT22;10675;47.976;7.824;2023-10-19T01:12:13;12.30;99.90
21033;DHT22;10675;47.976;7.824;2023-10-19T01:15:16;12.20;99.90
21033;DHT22;10675;47.976;7.824;2023-10-19T01:17:43;12.20;99.90
21033;DHT22;10675;47.976;7.824;2023-10-19T01:20:16;12.30;99.90
21033;DHT22;10675;47.976;7.824;2023-10-19T01:22:56;12.20;99.90
21033;DHT22;10675;47.976;7.824;2023-10-19T01:25:58;12.20;99.90
21033;DHT22;10675;47.976;7.824;2023-10-19T01:28:25;12.20;99.90
21033;DHT22;10675;47.976;7.824;2023-10-19T01:30:54;12.30;99.90
21033;DHT22;10675;47.976;7.824;2023-10-19T01:33:21;12.20;99.90
21033;DHT22;10675;47.976;7.824;2023-10-19T01:35:48;12.40;99.90
21033;DHT22;10675;47.976;7.824;2023-10-19T01:38:32;12.90;99.90
21033;DHT22;10675;47.976;7.824;2023-10-19T01:41:03;13.10;99.90
21033;DHT22;10675;47.976;7.824;2023-10-19T01:43:33;13.50;99.90
21033;DHT22;10675;47.976;7.824;2023-10-19T01:46:00;14.00;99.90
21033;DHT22;10675;47.976;7.824;2023-10-19T01:48:41;14.40;99.90
21033;DHT22;10675;47.976;7.824;2023-10-19T01:51:09;14.60;99.90
21033;DHT22;10675;47.976;7.824;2023-10-19T01:53:40;14.70;99.90
21033;DHT22;10675;47.976;7.824;2023-10-19T01:56:13;14.80;99.90
21033;DHT22;10675;47.976;7.824;2023-10-19T01:58:40;15.80;99.90
21033;DHT22;10675;47.976;7.824;2023-10-19T02:01:07;16.10;99.90
21033;DHT22;10675;47.976;7.824;2023-10-19T02:03:40;16.40;99.90
21033;DHT22;10675;47.976;7.824;2023-10-19T02:06:13;16.40;99.90
21033;DHT22;10675;47.976;7.824;2023-10-19T02:08:50;16.20;99.90
21033;DHT22;10675;47.976;7.824;2023-10-19T02:11:23;15.80;99.90
21033;DHT22;10675;47.976;7.824;2023-10-19T02:13:51;15.30;99.90
21033;DHT22;10675;47.976;7.824;2023-10-19T02:16:17;15.00;99.90
21033;DHT22;10675;47.976;7.824;2023-10-19T02:18:48;14.70;99.90
21033;DHT22;10675;47.976;7.824;2023-10-19T02:21:13;14.70;99.90
21033;DHT22;10675;47.976;7.824;2023-10-19T02:23:40;14.50;99.90
21033;DHT22;10675;47.976;7.824;2023-10-19T02:26:08;14.10;99.90
21033;DHT22;10675;47.976;7.824;2023-10-19T02:28:33;13.90;99.90
21033;DHT22;10675;47.976;7.824;2023-10-19T02:31:04;13.70;99.90
21033;DHT22;10675;47.976;7.824;2023-10-19T02:33:47;13.60;99.90
21033;DHT22;10675;47.976;7.824;2023-10-19T02:36:18;13.40;99.90
21033;DHT22;10675;47.976;7.824;2023-10-19T02:38:45;13.60;99.90
21033;DHT22;10675;47.976;7.824;2023-10-19T02:41:17;13.40;99.90
21033;DHT22;10675;47.976;7.824;2023-10-19T02:43:44;13.30;99.90
21033;DHT22;10675;47.976;7.824;2023-10-19T02:46:16;13.10;99.90
21033;DHT22;10675;47.976;7.824;2023-10-19T02:48:45;13.10;99.90
21033;DHT22;10675;47.976;7.824;2023-10-19T02:51:13;13.00;99.90
21033;DHT22;10675;47.976;7.824;2023-10-19T02:53:39;12.90;99.90
21033;DHT22;10675;47.976;7.824;2023-10-19T02:56:15;12.90;99.90
21033;DHT22;10675;47.976;7.824;2023-10-19T02:58:49;12.90;99.90
21033;DHT22;10675;47.976;7.824;2023-10-19T03:01:17;12.90;99.90
21033;DHT22;10675;47.976;7.824;2023-10-19T03:03:50;12.80;99.90
21033;DHT22;10675;47.976;7.824;2023-10-19T03:06:23;12.80;99.90
21033;DHT22;10675;47.976;7.824;2023-10-19T03:08:49;12.80;99.90
21033;DHT22;10675;47.976;7.824;2023-10-19T03:11:23;13.00;99.90
21033;DHT22;10675;47.976;7.824;2023-10-19T03:13:50;13.50;99.90
21033;DHT22;10675;47.976;7.824;2023-10-19T03:16:17;13.90;99.90
21033;DHT22;10675;47.976;7.824;2023-10-19T03:18:42;14.50;99.90
21033;DHT22;10675;47.976;7.824;2023-10-19T03:21:08;15.00;99.90
21033;DHT22;10675;47.976;7.824;2023-10-19T03:23:35;15.30;99.90
21033;DHT22;10675;47.976;7.824;2023-10-19T03:26:03;15.30;99.90
21033;DHT22;10675;47.976;7.824;2023-10-19T03:28:48;15.50;99.90
21033;DHT22;10675;47.976;7.824;2023-10-19T03:31:14;15.70;99.90
21033;DHT22;10675;47.976;7.824;2023-10-19T03:33:46;15.90;99.90
21033;DHT22;10675;47.976;7.824;2023-10-19T03:36:15;15.80;99.90
21033;DHT22;10675;47.976;7.824;2023-10-19T03:38:41;15.80;99.90
21033;DHT22;10675;47.976;7.824;2023-10-19T03:41:09;15.70;99.90
21033;DHT22;10675;47.976;7.824;2023-10-19T03:43:36;15.70;99.90
21033;DHT22;10675;47.976;7.824;2023-10-19T03:46:05;15.60;99.90
21033;DHT22;10675;47.976;7.824;2023-10-19T03:48:45;15.50;99.90
21033;DHT22;10675;47.976;7.824;2023-10-19T03:51:12;15.50;99.90
21033;DHT22;10675;47.976;7.824;2023-10-19T03:53:39;15.40;99.90
21033;DHT22;10675;47.976;7.824;2023-10-19T03:56:09;15.40;99.90
21033;DHT22;10675;47.976;7.824;2023-10-19T03:58:37;15.40;99.90
21033;DHT22;10675;47.976;7.824;2023-10-19T04:01:03;15.40;99.90
21033;DHT22;10675;47.976;7.824;2023-10-19T04:03:30;15.30;99.90
21033;DHT22;10675;47.976;7.824;2023-10-19T04:05:56;15.30;99.90
21033;DHT22;10675;47.976;7.824;2023-10-19T04:08:25;15.20;99.90
21033;DHT22;10675;47.976;7.824;2023-10-19T04:10:52;15.20;99.90
21033;DHT22;10675;47.976;7.824;2023-10-19T04:13:34;15.10;99.90
21033;DHT22;10675;47.976;7.824;2023-10-19T04:16:00;15.10;99.90
21033;DHT22;10675;47.976;7.824;2023-10-19T04:18:26;15.10;99.90
21033;DHT22;10675;47.976;7.824;2023-10-19T04:20:52;15.00;99.90
21033;DHT22;10675;47.976;7.824;2023-10-19T04:23:18;15.00;99.90
21033;DHT22;10675;47.976;7.824;2023-10-19T04:25:43;15.00;99.90
21033;DHT22;10675;47.976;7.824;2023-10-19T04:28:12;15.00;99.90
21033;DHT22;10675;47.976;7.824;2023-10-19T04:30:39;15.00;99.90
21033;DHT22;10675;47.976;7.824;2023-10-19T04:33:05;15.10;99.90
21033;DHT22;10675;47.976;7.824;2023-10-19T04:35:38;15.10;99.90
21033;DHT22;10675;47.976;7.824;2023-10-19T04:38:06;15.10;99.90
21033;DHT22;10675;47.976;7.824;2023-10-19T04:40:32;15.10;99.90
21033;DHT22;10675;47.976;7.824;2023-10-19T04:42:57;15.10;99.90
21033;DHT22;10675;47.976;7.824;2023-10-19T04:45:23;15.00;99.90
21033;DHT22;10675;47.976;7.824;2023-10-19T04:47:52;14.90;99.90
21033;DHT22;10675;47.976;7.824;2023-10-19T04:50:18;14.80;99.90
21033;DHT22;10675;47.976;7.824;2023-10-19T04:52:44;14.80;99.90
21033;DHT22;10675;47.976;7.824;2023-10-19T04:55:09;14.80;99.90
21033;DHT22;10675;47.976;7.824;2023-10-19T04:57:35;14.70;99.90
21033;DHT22;10675;47.976;7.824;2023-10-19T05:00:01;14.70;99.90
21033;DHT22;10675;47.976;7.824;2023-10-19T05:02:26;14.70;99.90
21033;DHT22;10675;47.976;7.824;2023-10-19T05:04:52;14.70;99.90
21033;DHT22;10675;47.976;7.824;2023-10-19T05:07:17;14.60;99.90
21033;DHT22;10675;47.976;7.824;2023-10-19T05:09:44;14.60;99.90
21033;DHT22;10675;47.976;7.824;2023-10-19T05:12:10;14.70;99.90
21033;DHT22;10675;47.976;7.824;2023-10-19T05:14:37;14.60;99.90
21033;DHT22;10675;47.976;7.824;2023-10-19T05:17:03;14.60;99.90
21033;DHT22;10675;47.976;7.824;2023-10-19T05:19:37;14.50;99.90
21033;DHT22;10675;47.976;7.824;2023-10-19T05:22:05;14.50;99.90
21033;DHT22;10675;47.976;7.824;2023-10-19T05:24:35;14.30;99.90
21033;DHT22;10675;47.976;7.824;2023-10-19T05:27:01;14.10;99.90
21033;DHT22;10675;47.976;7.824;2023-10-19T05:29:27;14.00;99.90
21033;DHT22;10675;47.976;7.824;2023-10-19T05:31:53;14.00;99.90
21033;DHT22;10675;47.976;7.824;2023-10-19T05:34:23;13.90;99.90
21033;DHT22;10675;47.976;7.824;2023-10-19T05:36:49;13.90;99.90
21033;DHT22;10675;47.976;7.824;2023-10-19T05:39:18;13.90;99.90
21033;DHT22;10675;47.976;7.824;2023-10-19T05:41:44;13.80;99.90
21033;DHT22;10675;47.976;7.824;2023-10-19T05:44:10;13.80;99.90
21033;DHT22;10675;47.976;7.824;2023-10-19T05:46:35;13.80;99.90
21033;DHT22;10675;47.976;7.824;2023-10-19T05:49:01;13.70;99.90
21033;DHT22;10675;47.976;7.824;2023-10-19T05:51:32;13.60;99.90
21033;DHT22;10675;47.976;7.824;2023-10-19T05:53:58;13.60;99.90
21033;DHT22;10675;47.976;7.824;2023-10-19T05:56:30;13.60;99.90
21033;DHT22;10675;47.976;7.824;2023-10-19T05:58:56;13.50;99.90
21033;DHT22;10675;47.976;7.824;2023-10-19T06:01:22;13.50;99.90
21033;DHT22;10675;47.976;7.824;2023-10-19T06:03:48;13.50;99.90
21033;DHT22;10675;47.976;7.824;2023-10-19T06:06:13;13.20;99.90
21033;DHT22;10675;47.976;7.824;2023-10-19T06:08:40;13.50;99.90
21033;DHT22;10675;47.976;7.824;2023-10-19T06:11:06;13.50;99.90
21033;DHT22;10675;47.976;7.824;2023-10-19T06:13:32;13.40;99.90
21033;DHT22;10675;47.976;7.824;2023-10-19T06:15:57;13.50;99.90
21033;DHT22;10675;47.976;7.824;2023-10-19T06:18:23;13.40;99.90
21033;DHT22;10675;47.976;7.824;2023-10-19T06:20:48;13.50;99.90
21033;DHT22;10675;47.976;7.824;2023-10-19T06:23:16;13.50;99.90
21033;DHT22;10675;47.976;7.824;2023-10-19T06:25:43;13.60;99.90
21033;DHT22;10675;47.976;7.824;2023-10-19T06:28:09;13.60;99.90
21033;DHT22;10675;47.976;7.824;2023-10-19T06:30:36;13.60;99.90
21033;DHT22;10675;47.976;7.824;2023-10-19T06:33:02;13.70;99.90
21033;DHT22;10675;47.976;7.824;2023-10-19T06:35:30;13.60;99.90
21033;DHT22;10675;47.976;7.824;2023-10-19T06:38:02;13.70;99.90
21033;DHT22;10675;47.976;7.824;2023-10-19T06:40:30;13.70;99.90
21033;DHT22;10675;47.976;7.824;2023-10-19T06:42:57;13.60;99.90
21033;DHT22;10675;47.976;7.824;2023-10-19T06:45:22;13.70;99.90
21033;DHT22;10675;47.976;7.824;2023-10-19T06:47:49;13.60;99.90
21033;DHT22;10675;47.976;7.824;2023-10-19T06:50:20;13.70;99.90
21033;DHT22;10675;47.976;7.824;2023-10-19T06:52:47;13.60;99.90
21033;DHT22;10675;47.976;7.824;2023-10-19T06:55:14;13.60;99.90
21033;DHT22;10675;47.976;7.824;2023-10-19T06:57:43;13.50;99.90
21033;DHT22;10675;47.976;7.824;2023-10-19T07:00:13;13.50;99.90
21033;DHT22;10675;47.976;7.824;2023-10-19T07:02:51;13.50;99.90
21033;DHT22;10675;47.976;7.824;2023-10-19T07:05:18;13.60;99.90
21033;DHT22;10675;47.976;7.824;2023-10-19T07:07:47;13.60;99.90
21033;DHT22;10675;47.976;7.824;2023-10-19T07:10:14;13.60;99.90
21033;DHT22;10675;47.976;7.824;2023-10-19T07:12:48;13.70;99.90
21033;DHT22;10675;47.976;7.824;2023-10-19T07:15:15;13.70;99.90
21033;DHT22;10675;47.976;7.824;2023-10-19T07:17:45;13.60;99.90
21033;DHT22;10675;47.976;7.824;2023-10-19T07:20:13;13.70;99.90
21033;DHT22;10675;47.976;7.824;2023-10-19T07:23:00;13.70;99.90
21033;DHT22;10675;47.976;7.824;2023-10-19T07:25:34;13.80;99.90
21033;DHT22;10675;47.976;7.824;2023-10-19T07:28:08;13.80;99.90
21033;DHT22;10675;47.976;7.824;2023-10-19T07:30:34;13.80;99.90
21033;DHT22;10675;47.976;7.824;2023-10-19T07:33:00;13.90;99.90
21033;DHT22;10675;47.976;7.824;2023-10-19T07:35:29;13.90;99.90
21033;DHT22;10675;47.976;7.824;2023-10-19T07:37:56;13.90;99.90
21033;DHT22;10675;47.976;7.824;2023-10-19T07:40:22;14.00;99.90
21033;DHT22;10675;47.976;7.824;2023-10-19T07:42:49;14.00;99.90
21033;DHT22;10675;47.976;7.824;2023-10-19T07:45:17;14.10;99.90
21033;DHT22;10675;47.976;7.824;2023-10-19T07:47:43;14.30;99.90
21033;DHT22;10675;47.976;7.824;2023-10-19T07:50:13;14.30;99.90
21033;DHT22;10675;47.976;7.824;2023-10-19T07:52:46;14.40;99.90
21033;DHT22;10675;47.976;7.824;2023-10-19T07:55:16;14.40;99.90
21033;DHT22;10675;47.976;7.824;2023-10-19T07:57:42;14.50;99.90
21033;DHT22;10675;47.976;7.824;2023-10-19T08:00:12;14.60;99.90
21033;DHT22;10675;47.976;7.824;2023-10-19T08:02:43;14.40;99.90
21033;DHT22;10675;47.976;7.824;2023-10-19T08:05:11;14.60;99.90
21033;DHT22;10675;47.976;7.824;2023-10-19T08:07:38;14.60;99.90
21033;DHT22;10675;47.976;7.824;2023-10-19T08:10:11;14.70;99.90
21033;DHT22;10675;47.976;7.824;2023-10-19T08:12:38;14.60;99.90
21033;DHT22;10675;47.976;7.824;2023-10-19T08:15:07;14.60;99.90
21033;DHT22;10675;47.976;7.824;2023-10-19T08:17:33;14.60;99.90
21033;DHT22;10675;47.976;7.824;2023-10-19T08:19:59;14.80;99.90
21033;DHT22;10675;47.976;7.824;2023-10-19T08:22:28;14.90;99.90
21033;DHT22;10675;47.976;7.824;2023-10-19T08:24:54;14.80;99.90
21033;DHT22;10675;47.976;7.824;2023-10-19T08:27:20;14.60;99.90
21033;DHT22;10675;47.976;7.824;2023-10-19T08:29:46;14.50;99.90
21033;DHT22;10675;47.976;7.824;2023-10-19T08:32:12;14.40;99.90
21033;DHT22;10675;47.976;7.824;2023-10-19T08:34:39;14.40;99.90
21033;DHT22;10675;47.976;7.824;2023-10-19T08:37:06;14.40;99.90
21033;DHT22;10675;47.976;7.824;2023-10-19T08:39:33;14.40;99.90
21033;DHT22;10675;47.976;7.824;2023-10-19T08:42:05;14.40;99.90
21033;DHT22;10675;47.976;7.824;2023-10-19T08:44:32;14.50;99.90
21033;DHT22;10675;47.976;7.824;2023-10-19T08:46:57;14.50;99.90
21033;DHT22;10675;47.976;7.824;2023-10-19T08:49:24;14.50;99.90
21033;DHT22;10675;47.976;7.824;2023-10-19T08:51:51;14.50;99.90
21033;DHT22;10675;47.976;7.824;2023-10-19T08:54:19;14.60;99.90
21033;DHT22;10675;47.976;7.824;2023-10-19T08:56:45;14.70;99.90
21033;DHT22;10675;47.976;7.824;2023-10-19T08:59:13;14.70;99.90
21033;DHT22;10675;47.976;7.824;2023-10-19T09:01:40;14.90;99.90
21033;DHT22;10675;47.976;7.824;2023-10-19T09:04:10;15.00;99.90
21033;DHT22;10675;47.976;7.824;2023-10-19T09:06:36;15.10;99.90
21033;DHT22;10675;47.976;7.824;2023-10-19T09:09:14;15.10;99.90
21033;DHT22;10675;47.976;7.824;2023-10-19T09:11:45;15.20;99.90
21033;DHT22;10675;47.976;7.824;2023-10-19T09:14:12;15.20;99.90
21033;DHT22;10675;47.976;7.824;2023-10-19T09:16:38;15.20;99.90
21033;DHT22;10675;47.976;7.824;2023-10-19T09:19:19;15.20;99.90
21033;DHT22;10675;47.976;7.824;2023-10-19T09:21:45;15.20;99.90
21033;DHT22;10675;47.976;7.824;2023-10-19T09:24:11;15.20;99.90
21033;DHT22;10675;47.976;7.824;2023-10-19T09:26:37;15.20;99.90
21033;DHT22;10675;47.976;7.824;2023-10-19T09:29:02;15.30;99.90
21033;DHT22;10675;47.976;7.824;2023-10-19T09:31:29;15.30;99.90
21033;DHT22;10675;47.976;7.824;2023-10-19T09:33:56;15.40;99.90
21033;DHT22;10675;47.976;7.824;2023-10-19T09:36:24;15.40;99.90
21033;DHT22;10675;47.976;7.824;2023-10-19T09:38:52;15.40;99.90
21033;DHT22;10675;47.976;7.824;2023-10-19T09:41:21;15.40;99.90
21033;DHT22;10675;47.976;7.824;2023-10-19T09:43:48;15.50;99.90
21033;DHT22;10675;47.976;7.824;2023-10-19T09:46:22;15.60;99.90
21033;DHT22;10675;47.976;7.824;2023-10-19T09:48:48;15.70;99.90
21033;DHT22;10675;47.976;7.824;2023-10-19T09:51:15;15.80;99.90
21033;DHT22;10675;47.976;7.824;2023-10-19T09:53:44;15.90;99.90
21033;DHT22;10675;47.976;7.824;2023-10-19T09:56:17;15.90;99.90
21033;DHT22;10675;47.976;7.824;2023-10-19T09:58:54;16.10;99.90
21033;DHT22;10675;47.976;7.824;2023-10-19T10:01:21;16.10;99.90
21033;DHT22;10675;47.976;7.824;2023-10-19T10:03:48;16.20;99.90
21033;DHT22;10675;47.976;7.824;2023-10-19T10:06:15;16.30;99.90
21033;DHT22;10675;47.976;7.824;2023-10-19T10:08:45;16.30;99.90
21033;DHT22;10675;47.976;7.824;2023-10-19T10:11:28;16.30;99.90
21033;DHT22;10675;47.976;7.824;2023-10-19T10:13:58;16.40;99.90
21033;DHT22;10675;47.976;7.824;2023-10-19T10:16:27;16.40;99.90
21033;DHT22;10675;47.976;7.824;2023-10-19T10:18:56;16.50;99.90
21033;DHT22;10675;47.976;7.824;2023-10-19T10:21:25;16.40;99.90
21033;DHT22;10675;47.976;7.824;2023-10-19T10:23:58;16.50;99.90
21033;DHT22;10675;47.976;7.824;2023-10-19T10:26:27;16.60;99.90
21033;DHT22;10675;47.976;7.824;2023-10-19T10:29:11;16.70;99.90
21033;DHT22;10675;47.976;7.824;2023-10-19T10:31:44;16.80;99.90
21033;DHT22;10675;47.976;7.824;2023-10-19T10:34:41;17.00;99.90
21033;DHT22;10675;47.976;7.824;2023-10-19T10:37:01;17.20;99.90
21033;DHT22;10675;47.976;7.824;2023-10-19T10:39:28;17.40;99.90
21033;DHT22;10675;47.976;7.824;2023-10-19T10:41:59;17.60;99.90
21033;DHT22;10675;47.976;7.824;2023-10-19T10:44:43;17.80;99.90
21033;DHT22;10675;47.976;7.824;2023-10-19T10:47:11;17.90;99.90
21033;DHT22;10675;47.976;7.824;2023-10-19T10:49:55;17.90;99.90
21033;DHT22;10675;47.976;7.824;2023-10-19T10:52:34;18.00;99.90
21033;DHT22;10675;47.976;7.824;2023-10-19T10:55:11;18.00;99.90
21033;DHT22;10675;47.976;7.824;2023-10-19T10:57:38;18.00;99.90
21033;DHT22;10675;47.976;7.824;2023-10-19T11:00:12;18.00;99.90
21033;DHT22;10675;47.976;7.824;2023-10-19T11:02:42;18.00;99.90
21033;DHT22;10675;47.976;7.824;2023-10-19T11:05:13;17.90;99.90
21033;DHT22;10675;47.976;7.824;2023-10-19T11:07:40;17.80;99.90
21033;DHT22;10675;47.976;7.824;2023-10-19T11:10:06;17.80;99.90
21033;DHT22;10675;47.976;7.824;2023-10-19T11:12:33;17.80;99.90
21033;DHT22;10675;47.976;7.824;2023-10-19T11:15:00;17.80;99.90
21033;DHT22;10675;47.976;7.824;2023-10-19T11:17:29;17.90;99.90
21033;DHT22;10675;47.976;7.824;2023-10-19T11:19:58;17.90;99.90
21033;DHT22;10675;47.976;7.824;2023-10-19T11:22:27;17.90;99.90
21033;DHT22;10675;47.976;7.824;2023-10-19T11:24:53;17.90;99.90
21033;DHT22;10675;47.976;7.824;2023-10-19T11:27:26;17.90;99.90
21033;DHT22;10675;47.976;7.824;2023-10-19T11:29:56;17.90;99.90
21033;DHT22;10675;47.976;7.824;2023-10-19T11:32:22;17.90;99.90
21033;DHT22;10675;47.976;7.824;2023-10-19T11:34:56;17.90;99.90
21033;DHT22;10675;47.976;7.824;2023-10-19T11:37:22;17.90;99.90
21033;DHT22;10675;47.976;7.824;2023-10-19T11:39:48;17.90;99.90
21033;DHT22;10675;47.976;7.824;2023-10-19T11:42:16;17.80;99.90
21033;DHT22;10675;47.976;7.824;2023-10-19T11:44:43;17.70;99.90
21033;DHT22;10675;47.976;7.824;2023-10-19T11:47:09;17.80;99.90
21033;DHT22;10675;47.976;7.824;2023-10-19T11:49:35;17.70;99.90
21033;DHT22;10675;47.976;7.824;2023-10-19T11:52:05;17.70;99.90
21033;DHT22;10675;47.976;7.824;2023-10-19T11:54:33;17.70;99.90
21033;DHT22;10675;47.976;7.824;2023-10-19T11:56:58;17.70;99.90
21033;DHT22;10675;47.976;7.824;2023-10-19T11:59:24;17.60;99.90
21033;DHT22;10675;47.976;7.824;2023-10-19T12:01:51;17.60;99.90
21033;DHT22;10675;47.976;7.824;2023-10-19T12:04:17;17.60;99.90
21033;DHT22;10675;47.976;7.824;2023-10-19T12:06:43;17.50;99.90
21033;DHT22;10675;47.976;7.824;2023-10-19T12:09:08;17.50;99.90
21033;DHT22;10675;47.976;7.824;2023-10-19T12:11:41;17.50;99.90
21033;DHT22;10675;47.976;7.824;2023-10-19T12:14:06;17.50;99.90
21033;DHT22;10675;47.976;7.824;2023-10-19T12:16:37;17.50;99.90
21033;DHT22;10675;47.976;7.824;2023-10-19T12:19:05;17.40;99.90
21033;DHT22;10675;47.976;7.824;2023-10-19T12:21:30;17.40;99.90
21033;DHT22;10675;47.976;7.824;2023-10-19T12:23:56;17.40;99.90
21033;DHT22;10675;47.976;7.824;2023-10-19T12:26:23;17.40;99.90
21033;DHT22;10675;47.976;7.824;2023-10-19T12:28:49;17.40;99.90
21033;DHT22;10675;47.976;7.824;2023-10-19T12:31:15;17.40;99.90
21033;DHT22;10675;47.976;7.824;2023-10-19T12:33:43;17.40;99.90
21033;DHT22;10675;47.976;7.824;2023-10-19T12:36:10;17.30;99.90
21033;DHT22;10675;47.976;7.824;2023-10-19T12:38:48;17.20;99.90
21033;DHT22;10675;47.976;7.824;2023-10-19T12:41:14;17.10;99.90
21033;DHT22;10675;47.976;7.824;2023-10-19T12:43:40;17.20;99.90
21033;DHT22;10675;47.976;7.824;2023-10-19T12:46:06;17.10;99.90
21033;DHT22;10675;47.976;7.824;2023-10-19T12:48:34;17.00;99.90
21033;DHT22;10675;47.976;7.824;2023-10-19T12:51:01;17.00;99.90
21033;DHT22;10675;47.976;7.824;2023-10-19T12:53:27;17.00;99.90
21033;DHT22;10675;47.976;7.824;2023-10-19T12:55:53;16.90;99.90
21033;DHT22;10675;47.976;7.824;2023-10-19T12:58:18;16.90;99.90
21033;DHT22;10675;47.976;7.824;2023-10-19T13:00:45;16.90;99.90
21033;DHT22;10675;47.976;7.824;2023-10-19T13:03:12;16.90;99.90
21033;DHT22;10675;47.976;7.824;2023-10-19T13:05:42;16.90;99.90
21033;DHT22;10675;47.976;7.824;2023-10-19T13:08:13;16.90;99.90
21033;DHT22;10675;47.976;7.824;2023-10-19T13:10:43;16.80;99.90
21033;DHT22;10675;47.976;7.824;2023-10-19T13:13:10;16.80;99.90
21033;DHT22;10675;47.976;7.824;2023-10-19T13:15:43;16.80;99.90
21033;DHT22;10675;47.976;7.824;2023-10-19T13:18:10;16.80;99.90
21033;DHT22;10675;47.976;7.824;2023-10-19T13:20:39;16.80;99.90
21033;DHT22;10675;47.976;7.824;2023-10-19T13:23:09;16.80;99.90
21033;DHT22;10675;47.976;7.824;2023-10-19T13:25:41;16.80;99.90
21033;DHT22;10675;47.976;7.824;2023-10-19T13:28:12;16.50;99.90
21033;DHT22;10675;47.976;7.824;2023-10-19T13:30:52;16.80;99.90
21033;DHT22;10675;47.976;7.824;2023-10-19T13:33:19;16.90;99.90
21033;DHT22;10675;47.976;7.824;2023-10-19T13:35:46;16.90;99.90
21033;DHT22;10675;47.976;7.824;2023-10-19T13:38:13;16.90;99.90
21033;DHT22;10675;47.976;7.824;2023-10-19T13:40:39;17.00;99.90
21033;DHT22;10675;47.976;7.824;2023-10-19T13:43:08;17.10;99.90
21033;DHT22;10675;47.976;7.824;2023-10-19T13:45:35;17.10;99.90
21033;DHT22;10675;47.976;7.824;2023-10-19T13:48:04;17.20;99.90
21033;DHT22;10675;47.976;7.824;2023-10-19T13:50:31;17.20;99.90
21033;DHT22;10675;47.976;7.824;2023-10-19T13:52:57;17.30;99.90
21033;DHT22;10675;47.976;7.824;2023-10-19T13:55:23;17.20;99.90
21033;DHT22;10675;47.976;7.824;2023-10-19T13:57:50;17.20;99.90
21033;DHT22;10675;47.976;7.824;2023-10-19T14:00:17;17.20;99.90
21033;DHT22;10675;47.976;7.824;2023-10-19T14:03:08;17.20;99.90
21033;DHT22;10675;47.976;7.824;2023-10-19T14:05:38;17.20;99.90
21033;DHT22;10675;47.976;7.824;2023-10-19T14:08:05;17.20;99.90
21033;DHT22;10675;47.976;7.824;2023-10-19T14:10:31;17.30;99.90
21033;DHT22;10675;47.976;7.824;2023-10-19T14:12:57;17.30;99.90
21033;DHT22;10675;47.976;7.824;2023-10-19T14:15:22;17.00;99.90
21033;DHT22;10675;47.976;7.824;2023-10-19T14:17:49;17.20;99.90
21033;DHT22;10675;47.976;7.824;2023-10-19T14:20:15;17.20;99.90
21033;DHT22;10675;47.976;7.824;2023-10-19T14:22:43;17.20;99.90
21033;DHT22;10675;47.976;7.824;2023-10-19T14:25:09;17.20;99.90
21033;DHT22;10675;47.976;7.824;2023-10-19T14:27:44;17.20;99.90
21033;DHT22;10675;47.976;7.824;2023-10-19T14:30:13;17.20;99.90
21033;DHT22;10675;47.976;7.824;2023-10-19T14:32:42;17.20;99.90
21033;DHT22;10675;47.976;7.824;2023-10-19T14:35:12;17.10;99.90
21033;DHT22;10675;47.976;7.824;2023-10-19T14:37:39;17.10;99.90
21033;DHT22;10675;47.976;7.824;2023-10-19T14:40:08;17.00;99.90
21033;DHT22;10675;47.976;7.824;2023-10-19T14:42:39;17.00;99.90
21033;DHT22;10675;47.976;7.824;2023-10-19T14:45:16;16.90;99.90
21033;DHT22;10675;47.976;7.824;2023-10-19T14:47:51;16.90;99.90
21033;DHT22;10675;47.976;7.824;2023-10-19T14:50:17;16.90;99.90
21033;DHT22;10675;47.976;7.824;2023-10-19T14:52:47;16.80;99.90
21033;DHT22;10675;47.976;7.824;2023-10-19T14:55:14;16.80;99.90
21033;DHT22;10675;47.976;7.824;2023-10-19T14:57:42;16.70;99.90
21033;DHT22;10675;47.976;7.824;2023-10-19T15:00:09;16.70;99.90
21033;DHT22;10675;47.976;7.824;2023-10-19T15:02:49;16.60;99.90
21033;DHT22;10675;47.976;7.824;2023-10-19T15:05:16;16.60;99.90
21033;DHT22;10675;47.976;7.824;2023-10-19T15:07:42;16.50;99.90
21033;DHT22;10675;47.976;7.824;2023-10-19T15:10:11;16.50;99.90
21033;DHT22;10675;47.976;7.824;2023-10-19T15:12:40;16.40;99.90
21033;DHT22;10675;47.976;7.824;2023-10-19T15:15:07;16.40;99.90
21033;DHT22;10675;47.976;7.824;2023-10-19T15:17:36;16.40;99.90
21033;DHT22;10675;47.976;7.824;2023-10-19T15:20:04;16.40;99.90
21033;DHT22;10675;47.976;7.824;2023-10-19T15:22:30;16.40;99.90
21033;DHT22;10675;47.976;7.824;2023-10-19T15:24:56;16.40;99.90
21033;DHT22;10675;47.976;7.824;2023-10-19T15:27:22;16.40;99.90
21033;DHT22;10675;47.976;7.824;2023-10-19T15:29:48;16.40;99.90
21033;DHT22;10675;47.976;7.824;2023-10-19T15:32:14;16.40;99.90
21033;DHT22;10675;47.976;7.824;2023-10-19T15:34:41;16.40;99.90
21033;DHT22;10675;47.976;7.824;2023-10-19T15:37:07;16.40;99.90
21033;DHT22;10675;47.976;7.824;2023-10-19T15:39:32;16.40;99.90
21033;DHT22;10675;47.976;7.824;2023-10-19T15:41:58;16.00;99.90